sensor_id;sensor_type;location;lat;lon;timestamp;temperature;humidity
9383;DHT22;4731;49.708;10.816;2023-08-24T00:00:24;19.00;99.90
9383;DHT22;4731;49.708;10.816;2023-08-24T00:02:51;18.90;99.90
9383;DHT22;4731;49.708;10.816;2023-08-24T00:05:18;18.90;99.90
9383;DHT22;4731;49.708;10.816;2023-08-24T00:07:45;19.10;99.90
9383;DHT22;4731;49.708;10.816;2023-08-24T00:10:13;19.00;99.90
9383;DHT22;4731;49.708;10.816;2023-08-24T00:12:41;18.80;99.90
9383;DHT22;4731;49.708;10.816;2023-08-24T00:15:09;18.70;99.90
9383;DHT22;4731;49.708;10.816;2023-08-24T00:17:36;18.70;99.90
9383;DHT22;4731;49.708;10.816;2023-08-24T00:20:04;18.70;99.90
9383;DHT22;4731;49.708;10.816;2023-08-24T00:22:36;18.70;99.90
9383;DHT22;4731;49.708;10.816;2023-08-24T00:25:04;18.70;99.90
9383;DHT22;4731;49.708;10.816;2023-08-24T00:27:31;18.70;99.90
9383;DHT22;4731;49.708;10.816;2023-08-24T00:29:59;20.60;99.90
9383;DHT22;4731;49.708;10.816;2023-08-24T00:32:25;18.70;99.90
9383;DHT22;4731;49.708;10.816;2023-08-24T00:34:53;18.70;99.90
9383;DHT22;4731;49.708;10.816;2023-08-24T00:37:19;18.60;99.90
9383;DHT22;4731;49.708;10.816;2023-08-24T00:39:46;18.50;99.90
9383;DHT22;4731;49.708;10.816;2023-08-24T00:42:13;18.50;99.90
9383;DHT22;4731;49.708;10.816;2023-08-24T00:44:40;18.50;99.90
9383;DHT22;4731;49.708;10.816;2023-08-24T00:47:10;18.50;99.90
9383;DHT22;4731;49.708;10.816;2023-08-24T00:49:37;18.40;99.90
9383;DHT22;4731;49.708;10.816;2023-08-24T00:52:04;18.40;99.90
9383;DHT22;4731;49.708;10.816;2023-08-24T00:54:31;18.40;99.90
9383;DHT22;4731;49.708;10.816;2023-08-24T00:56:58;19.90;99.90
9383;DHT22;4731;49.708;10.816;2023-08-24T00:59:25;18.20;99.90
9383;DHT22;4731;49.708;10.816;2023-08-24T01:01:52;18.30;99.90
9383;DHT22;4731;49.708;10.816;2023-08-24T01:04:21;20.20;99.90
9383;DHT22;4731;49.708;10.816;2023-08-24T01:06:48;21.20;99.90
9383;DHT22;4731;49.708;10.816;2023-08-24T01:09:16;18.20;99.90
9383;DHT22;4731;49.708;10.816;2023-08-24T01:11:52;18.20;99.90
9383;DHT22;4731;49.708;10.816;2023-08-24T01:14:33;20.50;99.90
9383;DHT22;4731;49.708;10.816;2023-08-24T01:17:04;18.10;99.90
9383;DHT22;4731;49.708;10.816;2023-08-24T01:19:37;18.00;99.90
9383;DHT22;4731;49.708;10.816;2023-08-24T01:22:08;18.00;99.90
9383;DHT22;4731;49.708;10.816;2023-08-24T01:24:40;17.90;99.90
9383;DHT22;4731;49.708;10.816;2023-08-24T01:27:10;17.80;99.90
9383;DHT22;4731;49.708;10.816;2023-08-24T01:29:38;17.80;99.90
9383;DHT22;4731;49.708;10.816;2023-08-24T01:32:08;19.60;99.90
9383;DHT22;4731;49.708;10.816;2023-08-24T01:34:36;19.70;99.90
9383;DHT22;4731;49.708;10.816;2023-08-24T01:37:03;17.80;99.90
9383;DHT22;4731;49.708;10.816;2023-08-24T01:39:37;17.80;99.90
9383;DHT22;4731;49.708;10.816;2023-08-24T01:42:10;17.80;99.90
9383;DHT22;4731;49.708;10.816;2023-08-24T01:44:39;17.70;99.90
9383;DHT22;4731;49.708;10.816;2023-08-24T01:47:09;17.70;99.90
9383;DHT22;4731;49.708;10.816;2023-08-24T01:49:37;17.70;99.90
9383;DHT22;4731;49.708;10.816;2023-08-24T01:52:05;17.70;99.90
9383;DHT22;4731;49.708;10.816;2023-08-24T01:54:32;17.70;99.90
9383;DHT22;4731;49.708;10.816;2023-08-24T01:56:59;20.00;99.90
9383;DHT22;4731;49.708;10.816;2023-08-24T01:59:28;17.60;99.90
9383;DHT22;4731;49.708;10.816;2023-08-24T02:01:57;17.60;99.90
9383;DHT22;4731;49.708;10.816;2023-08-24T02:04:24;17.60;99.90
9383;DHT22;4731;49.708;10.816;2023-08-24T02:06:51;17.50;99.90
9383;DHT22;4731;49.708;10.816;2023-08-24T02:09:18;17.50;99.90
9383;DHT22;4731;49.708;10.816;2023-08-24T02:11:45;17.40;99.90
9383;DHT22;4731;49.708;10.816;2023-08-24T02:14:11;17.40;99.90
9383;DHT22;4731;49.708;10.816;2023-08-24T02:16:39;17.40;99.90
9383;DHT22;4731;49.708;10.816;2023-08-24T02:19:06;18.60;99.90
9383;DHT22;4731;49.708;10.816;2023-08-24T02:21:35;17.30;99.90
9383;DHT22;4731;49.708;10.816;2023-08-24T02:24:02;17.30;99.90
9383;DHT22;4731;49.708;10.816;2023-08-24T02:26:30;17.30;99.90
9383;DHT22;4731;49.708;10.816;2023-08-24T02:28:57;17.20;99.90
9383;DHT22;4731;49.708;10.816;2023-08-24T02:31:24;17.10;99.90
9383;DHT22;4731;49.708;10.816;2023-08-24T02:33:52;17.10;99.90
9383;DHT22;4731;49.708;10.816;2023-08-24T02:36:19;17.10;99.90
9383;DHT22;4731;49.708;10.816;2023-08-24T02:38:46;17.20;99.90
9383;DHT22;4731;49.708;10.816;2023-08-24T02:41:14;18.60;99.90
9383;DHT22;4731;49.708;10.816;2023-08-24T02:43:41;17.20;99.90
9383;DHT22;4731;49.708;10.816;2023-08-24T02:46:08;17.10;99.90
9383;DHT22;4731;49.708;10.816;2023-08-24T02:48:35;17.10;99.90
9383;DHT22;4731;49.708;10.816;2023-08-24T02:51:04;17.10;99.90
9383;DHT22;4731;49.708;10.816;2023-08-24T02:53:32;18.60;99.90
9383;DHT22;4731;49.708;10.816;2023-08-24T02:55:59;17.10;99.90
9383;DHT22;4731;49.708;10.816;2023-08-24T02:58:26;16.90;99.90
9383;DHT22;4731;49.708;10.816;2023-08-24T03:00:53;16.90;99.90
9383;DHT22;4731;49.708;10.816;2023-08-24T03:03:20;16.90;99.90
9383;DHT22;4731;49.708;10.816;2023-08-24T03:05:57;17.40;99.90
9383;DHT22;4731;49.708;10.816;2023-08-24T03:08:25;16.90;99.90
9383;DHT22;4731;49.708;10.816;2023-08-24T03:10:54;16.80;99.90
9383;DHT22;4731;49.708;10.816;2023-08-24T03:13:22;16.90;99.90
9383;DHT22;4731;49.708;10.816;2023-08-24T03:15:49;16.90;99.90
9383;DHT22;4731;49.708;10.816;2023-08-24T03:18:16;16.90;99.90
9383;DHT22;4731;49.708;10.816;2023-08-24T03:20:44;16.80;99.90
9383;DHT22;4731;49.708;10.816;2023-08-24T03:23:10;16.80;99.90
9383;DHT22;4731;49.708;10.816;2023-08-24T03:25:40;19.00;99.90
9383;DHT22;4731;49.708;10.816;2023-08-24T03:28:08;16.90;99.90
9383;DHT22;4731;49.708;10.816;2023-08-24T03:30:36;16.80;99.90
9383;DHT22;4731;49.708;10.816;2023-08-24T03:33:04;16.90;99.90
9383;DHT22;4731;49.708;10.816;2023-08-24T03:35:31;16.80;99.90
9383;DHT22;4731;49.708;10.816;2023-08-24T03:37:58;16.70;99.90
9383;DHT22;4731;49.708;10.816;2023-08-24T03:40:25;16.70;99.90
9383;DHT22;4731;49.708;10.816;2023-08-24T03:42:53;16.70;99.90
9383;DHT22;4731;49.708;10.816;2023-08-24T03:45:20;16.70;99.90
9383;DHT22;4731;49.708;10.816;2023-08-24T03:47:47;16.70;99.90
9383;DHT22;4731;49.708;10.816;2023-08-24T03:50:13;16.70;99.90
9383;DHT22;4731;49.708;10.816;2023-08-24T03:52:41;16.70;99.90
9383;DHT22;4731;49.708;10.816;2023-08-24T03:55:08;18.40;99.90
9383;DHT22;4731;49.708;10.816;2023-08-24T03:57:35;16.70;99.90
9383;DHT22;4731;49.708;10.816;2023-08-24T04:00:06;16.60;99.90
9383;DHT22;4731;49.708;10.816;2023-08-24T04:02:36;16.60;99.90
9383;DHT22;4731;49.708;10.816;2023-08-24T04:05:10;16.60;99.90
9383;DHT22;4731;49.708;10.816;2023-08-24T04:07:43;16.60;99.90
9383;DHT22;4731;49.708;10.816;2023-08-24T04:10:11;17.80;99.90
9383;DHT22;4731;49.708;10.816;2023-08-24T04:12:37;16.40;99.90
9383;DHT22;4731;49.708;10.816;2023-08-24T04:15:06;19.00;99.90
9383;DHT22;4731;49.708;10.816;2023-08-24T04:17:34;16.40;99.90
9383;DHT22;4731;49.708;10.816;2023-08-24T04:20:00;16.40;99.90
9383;DHT22;4731;49.708;10.816;2023-08-24T04:22:27;16.40;99.90
9383;DHT22;4731;49.708;10.816;2023-08-24T04:24:54;16.40;99.90
9383;DHT22;4731;49.708;10.816;2023-08-24T04:27:21;16.30;99.90
9383;DHT22;4731;49.708;10.816;2023-08-24T04:29:48;16.30;99.90
9383;DHT22;4731;49.708;10.816;2023-08-24T04:32:17;18.00;99.90
9383;DHT22;4731;49.708;10.816;2023-08-24T04:34:44;16.40;99.90
9383;DHT22;4731;49.708;10.816;2023-08-24T04:37:10;16.40;99.90
9383;DHT22;4731;49.708;10.816;2023-08-24T04:39:37;16.40;99.90
9383;DHT22;4731;49.708;10.816;2023-08-24T04:42:04;18.10;99.90
9383;DHT22;4731;49.708;10.816;2023-08-24T04:44:31;16.50;99.90
9383;DHT22;4731;49.708;10.816;2023-08-24T04:46:58;16.60;99.90
9383;DHT22;4731;49.708;10.816;2023-08-24T04:49:26;16.60;99.90
9383;DHT22;4731;49.708;10.816;2023-08-24T04:51:53;16.70;99.90
9383;DHT22;4731;49.708;10.816;2023-08-24T04:54:20;16.80;99.90
9383;DHT22;4731;49.708;10.816;2023-08-24T04:56:47;16.80;99.90
9383;DHT22;4731;49.708;10.816;2023-08-24T04:59:14;16.90;99.90
9383;DHT22;4731;49.708;10.816;2023-08-24T05:01:40;16.90;99.90
9383;DHT22;4731;49.708;10.816;2023-08-24T05:04:07;19.00;99.90
9383;DHT22;4731;49.708;10.816;2023-08-24T05:06:35;16.90;99.90
9383;DHT22;4731;49.708;10.816;2023-08-24T05:09:02;16.90;99.90
9383;DHT22;4731;49.708;10.816;2023-08-24T05:11:29;16.90;99.90
9383;DHT22;4731;49.708;10.816;2023-08-24T05:13:56;16.90;99.90
9383;DHT22;4731;49.708;10.816;2023-08-24T05:16:23;16.90;99.90
9383;DHT22;4731;49.708;10.816;2023-08-24T05:18:50;17.10;99.90
9383;DHT22;4731;49.708;10.816;2023-08-24T05:21:17;17.10;99.90
9383;DHT22;4731;49.708;10.816;2023-08-24T05:23:45;17.30;99.90
9383;DHT22;4731;49.708;10.816;2023-08-24T05:26:11;17.50;99.90
9383;DHT22;4731;49.708;10.816;2023-08-24T05:28:38;17.70;99.90
9383;DHT22;4731;49.708;10.816;2023-08-24T05:31:05;17.90;99.90
9383;DHT22;4731;49.708;10.816;2023-08-24T05:33:32;18.00;99.90
9383;DHT22;4731;49.708;10.816;2023-08-24T05:35:59;18.10;99.90
9383;DHT22;4731;49.708;10.816;2023-08-24T05:38:26;18.30;99.90
9383;DHT22;4731;49.708;10.816;2023-08-24T05:40:54;18.60;99.90
9383;DHT22;4731;49.708;10.816;2023-08-24T05:43:21;18.70;99.90
9383;DHT22;4731;49.708;10.816;2023-08-24T05:45:48;19.00;99.90
9383;DHT22;4731;49.708;10.816;2023-08-24T05:48:15;19.50;99.90
9383;DHT22;4731;49.708;10.816;2023-08-24T05:50:43;20.60;99.90
9383;DHT22;4731;49.708;10.816;2023-08-24T05:53:10;18.80;99.90
9383;DHT22;4731;49.708;10.816;2023-08-24T05:55:38;18.70;99.90
9383;DHT22;4731;49.708;10.816;2023-08-24T05:58:06;18.20;99.90
9383;DHT22;4731;49.708;10.816;2023-08-24T06:00:32;18.30;99.90
9383;DHT22;4731;49.708;10.816;2023-08-24T06:03:00;18.20;99.90
9383;DHT22;4731;49.708;10.816;2023-08-24T06:05:27;18.40;99.90
9383;DHT22;4731;49.708;10.816;2023-08-24T06:07:54;19.40;99.90
9383;DHT22;4731;49.708;10.816;2023-08-24T06:10:21;18.10;99.90
9383;DHT22;4731;49.708;10.816;2023-08-24T06:12:48;18.00;99.90
9383;DHT22;4731;49.708;10.816;2023-08-24T06:15:16;18.10;99.90
9383;DHT22;4731;49.708;10.816;2023-08-24T06:17:44;18.00;99.90
9383;DHT22;4731;49.708;10.816;2023-08-24T06:20:16;17.70;99.90
9383;DHT22;4731;49.708;10.816;2023-08-24T06:22:43;17.80;99.90
9383;DHT22;4731;49.708;10.816;2023-08-24T06:25:10;18.00;99.90
9383;DHT22;4731;49.708;10.816;2023-08-24T06:27:37;18.00;99.90
9383;DHT22;4731;49.708;10.816;2023-08-24T06:30:05;20.70;99.90
9383;DHT22;4731;49.708;10.816;2023-08-24T06:32:33;19.70;99.90
9383;DHT22;4731;49.708;10.816;2023-08-24T06:35:00;20.10;99.90
9383;DHT22;4731;49.708;10.816;2023-08-24T06:37:28;22.60;99.90
9383;DHT22;4731;49.708;10.816;2023-08-24T06:39:55;21.10;99.90
9383;DHT22;4731;49.708;10.816;2023-08-24T06:42:22;23.00;99.90
9383;DHT22;4731;49.708;10.816;2023-08-24T06:44:49;20.60;99.90
9383;DHT22;4731;49.708;10.816;2023-08-24T06:47:17;20.30;99.90
9383;DHT22;4731;49.708;10.816;2023-08-24T06:49:45;20.60;99.90
9383;DHT22;4731;49.708;10.816;2023-08-24T06:52:14;20.70;99.90
9383;DHT22;4731;49.708;10.816;2023-08-24T06:54:41;20.90;99.90
9383;DHT22;4731;49.708;10.816;2023-08-24T06:57:11;21.00;99.90
9383;DHT22;4731;49.708;10.816;2023-08-24T06:59:38;21.20;99.90
9383;DHT22;4731;49.708;10.816;2023-08-24T07:02:06;21.40;99.90
9383;DHT22;4731;49.708;10.816;2023-08-24T07:04:33;21.60;99.90
9383;DHT22;4731;49.708;10.816;2023-08-24T07:07:01;21.60;99.90
9383;DHT22;4731;49.708;10.816;2023-08-24T07:09:28;21.30;99.90
9383;DHT22;4731;49.708;10.816;2023-08-24T07:11:55;22.90;99.90
9383;DHT22;4731;49.708;10.816;2023-08-24T07:14:22;20.90;99.90
9383;DHT22;4731;49.708;10.816;2023-08-24T07:16:49;21.00;99.90
9383;DHT22;4731;49.708;10.816;2023-08-24T07:19:16;21.00;99.90
9383;DHT22;4731;49.708;10.816;2023-08-24T07:21:43;21.10;99.90
9383;DHT22;4731;49.708;10.816;2023-08-24T07:24:11;21.10;99.90
9383;DHT22;4731;49.708;10.816;2023-08-24T07:26:40;21.50;99.90
9383;DHT22;4731;49.708;10.816;2023-08-24T07:29:11;22.30;99.90
9383;DHT22;4731;49.708;10.816;2023-08-24T07:31:38;23.00;99.90
9383;DHT22;4731;49.708;10.816;2023-08-24T07:34:05;23.90;99.90
9383;DHT22;4731;49.708;10.816;2023-08-24T07:36:32;24.70;99.90
9383;DHT22;4731;49.708;10.816;2023-08-24T07:38:58;25.20;99.90
9383;DHT22;4731;49.708;10.816;2023-08-24T07:41:26;25.80;99.90
9383;DHT22;4731;49.708;10.816;2023-08-24T07:43:54;26.20;99.90
9383;DHT22;4731;49.708;10.816;2023-08-24T07:46:20;26.50;99.90
9383;DHT22;4731;49.708;10.816;2023-08-24T07:48:50;26.90;99.90
9383;DHT22;4731;49.708;10.816;2023-08-24T07:51:17;27.90;99.90
9383;DHT22;4731;49.708;10.816;2023-08-24T07:53:44;27.60;99.90
9383;DHT22;4731;49.708;10.816;2023-08-24T07:56:11;29.20;99.90
9383;DHT22;4731;49.708;10.816;2023-08-24T07:58:39;28.20;99.90
9383;DHT22;4731;49.708;10.816;2023-08-24T08:01:06;28.60;99.90
9383;DHT22;4731;49.708;10.816;2023-08-24T08:03:33;29.00;99.90
9383;DHT22;4731;49.708;10.816;2023-08-24T08:06:01;28.90;99.90
9383;DHT22;4731;49.708;10.816;2023-08-24T08:08:28;29.30;99.90
9383;DHT22;4731;49.708;10.816;2023-08-24T08:10:59;30.40;99.90
9383;DHT22;4731;49.708;10.816;2023-08-24T08:13:26;31.50;99.90
9383;DHT22;4731;49.708;10.816;2023-08-24T08:16:00;32.40;99.90
9383;DHT22;4731;49.708;10.816;2023-08-24T08:18:27;32.60;99.90
9383;DHT22;4731;49.708;10.816;2023-08-24T08:20:54;33.00;99.90
9383;DHT22;4731;49.708;10.816;2023-08-24T08:23:21;33.60;99.90
9383;DHT22;4731;49.708;10.816;2023-08-24T08:25:48;33.80;99.90
9383;DHT22;4731;49.708;10.816;2023-08-24T08:28:14;32.90;99.90
9383;DHT22;4731;49.708;10.816;2023-08-24T08:30:41;33.80;99.90
9383;DHT22;4731;49.708;10.816;2023-08-24T08:33:09;34.40;99.90
9383;DHT22;4731;49.708;10.816;2023-08-24T08:35:38;35.00;99.90
9383;DHT22;4731;49.708;10.816;2023-08-24T08:38:06;35.80;99.90
9383;DHT22;4731;49.708;10.816;2023-08-24T08:40:36;35.30;99.90
9383;DHT22;4731;49.708;10.816;2023-08-24T08:43:03;35.70;99.90
9383;DHT22;4731;49.708;10.816;2023-08-24T08:45:31;36.80;99.90
9383;DHT22;4731;49.708;10.816;2023-08-24T08:48:00;36.60;99.90
9383;DHT22;4731;49.708;10.816;2023-08-24T08:50:29;36.50;99.90
9383;DHT22;4731;49.708;10.816;2023-08-24T08:52:56;36.40;99.90
9383;DHT22;4731;49.708;10.816;2023-08-24T08:55:24;34.70;99.90
9383;DHT22;4731;49.708;10.816;2023-08-24T08:57:53;33.00;99.90
9383;DHT22;4731;49.708;10.816;2023-08-24T09:00:20;31.80;99.90
9383;DHT22;4731;49.708;10.816;2023-08-24T09:02:48;30.80;99.90
9383;DHT22;4731;49.708;10.816;2023-08-24T09:05:16;29.90;99.90
9383;DHT22;4731;49.708;10.816;2023-08-24T09:07:44;28.70;99.90
9383;DHT22;4731;49.708;10.816;2023-08-24T09:10:12;27.60;99.90
9383;DHT22;4731;49.708;10.816;2023-08-24T09:12:39;27.00;99.90
9383;DHT22;4731;49.708;10.816;2023-08-24T09:15:07;27.00;99.90
9383;DHT22;4731;49.708;10.816;2023-08-24T09:17:34;26.60;99.90
9383;DHT22;4731;49.708;10.816;2023-08-24T09:20:06;26.70;99.90
9383;DHT22;4731;49.708;10.816;2023-08-24T09:22:35;26.80;99.90
9383;DHT22;4731;49.708;10.816;2023-08-24T09:25:05;27.20;99.90
9383;DHT22;4731;49.708;10.816;2023-08-24T09:27:34;28.10;99.90
9383;DHT22;4731;49.708;10.816;2023-08-24T09:30:01;30.30;99.90
9383;DHT22;4731;49.708;10.816;2023-08-24T09:32:29;32.50;99.90
9383;DHT22;4731;49.708;10.816;2023-08-24T09:35:02;32.00;99.90
9383;DHT22;4731;49.708;10.816;2023-08-24T09:37:31;31.80;99.90
9383;DHT22;4731;49.708;10.816;2023-08-24T09:40:01;33.70;99.90
9383;DHT22;4731;49.708;10.816;2023-08-24T09:42:37;35.40;99.90
9383;DHT22;4731;49.708;10.816;2023-08-24T09:45:04;36.30;99.90
9383;DHT22;4731;49.708;10.816;2023-08-24T09:47:31;37.20;99.90
9383;DHT22;4731;49.708;10.816;2023-08-24T09:49:59;36.10;99.90
9383;DHT22;4731;49.708;10.816;2023-08-24T09:52:27;35.20;99.90
9383;DHT22;4731;49.708;10.816;2023-08-24T09:55:01;33.90;99.90
9383;DHT22;4731;49.708;10.816;2023-08-24T09:57:30;33.60;99.90
9383;DHT22;4731;49.708;10.816;2023-08-24T09:59:58;34.00;99.90
9383;DHT22;4731;49.708;10.816;2023-08-24T10:02:29;33.90;99.90
9383;DHT22;4731;49.708;10.816;2023-08-24T10:04:59;31.20;99.90
9383;DHT22;4731;49.708;10.816;2023-08-24T10:07:26;31.00;99.90
9383;DHT22;4731;49.708;10.816;2023-08-24T10:09:58;30.40;99.90
9383;DHT22;4731;49.708;10.816;2023-08-24T10:12:28;31.30;99.90
9383;DHT22;4731;49.708;10.816;2023-08-24T10:15:00;31.60;99.90
9383;DHT22;4731;49.708;10.816;2023-08-24T10:17:29;30.80;99.90
9383;DHT22;4731;49.708;10.816;2023-08-24T10:19:58;30.90;99.90
9383;DHT22;4731;49.708;10.816;2023-08-24T10:22:27;30.10;99.90
9383;DHT22;4731;49.708;10.816;2023-08-24T10:24:54;30.10;99.90
9383;DHT22;4731;49.708;10.816;2023-08-24T10:27:23;30.30;99.90
9383;DHT22;4731;49.708;10.816;2023-08-24T10:29:50;31.40;99.90
9383;DHT22;4731;49.708;10.816;2023-08-24T10:32:19;31.80;99.90
9383;DHT22;4731;49.708;10.816;2023-08-24T10:34:47;33.40;99.90
9383;DHT22;4731;49.708;10.816;2023-08-24T10:37:14;32.70;99.90
9383;DHT22;4731;49.708;10.816;2023-08-24T10:39:44;32.10;99.90
9383;DHT22;4731;49.708;10.816;2023-08-24T10:42:12;31.80;99.90
9383;DHT22;4731;49.708;10.816;2023-08-24T10:44:44;32.10;99.90
9383;DHT22;4731;49.708;10.816;2023-08-24T10:47:12;31.20;99.90
9383;DHT22;4731;49.708;10.816;2023-08-24T10:49:41;30.60;99.90
9383;DHT22;4731;49.708;10.816;2023-08-24T10:52:16;31.30;99.90
9383;DHT22;4731;49.708;10.816;2023-08-24T10:54:44;31.20;99.90
9383;DHT22;4731;49.708;10.816;2023-08-24T10:57:21;29.50;99.90
9383;DHT22;4731;49.708;10.816;2023-08-24T10:59:59;29.50;99.90
9383;DHT22;4731;49.708;10.816;2023-08-24T11:02:26;30.10;99.90
9383;DHT22;4731;49.708;10.816;2023-08-24T11:05:14;30.40;99.90
9383;DHT22;4731;49.708;10.816;2023-08-24T11:07:51;31.40;99.90
9383;DHT22;4731;49.708;10.816;2023-08-24T11:10:19;31.10;99.90
9383;DHT22;4731;49.708;10.816;2023-08-24T11:13:10;30.80;99.90
9383;DHT22;4731;49.708;10.816;2023-08-24T11:15:39;30.90;99.90
9383;DHT22;4731;49.708;10.816;2023-08-24T11:18:22;31.20;99.90
9383;DHT22;4731;49.708;10.816;2023-08-24T11:20:53;30.60;99.90
9383;DHT22;4731;49.708;10.816;2023-08-24T11:23:21;30.70;99.90
9383;DHT22;4731;49.708;10.816;2023-08-24T11:25:49;30.80;99.90
9383;DHT22;4731;49.708;10.816;2023-08-24T11:28:21;30.90;99.90
9383;DHT22;4731;49.708;10.816;2023-08-24T11:30:47;30.50;99.90
9383;DHT22;4731;49.708;10.816;2023-08-24T11:33:16;30.90;99.90
9383;DHT22;4731;49.708;10.816;2023-08-24T11:35:44;31.10;99.90
9383;DHT22;4731;49.708;10.816;2023-08-24T11:38:12;31.10;99.90
9383;DHT22;4731;49.708;10.816;2023-08-24T11:40:39;31.10;99.90
9383;DHT22;4731;49.708;10.816;2023-08-24T11:43:06;30.00;99.90
9383;DHT22;4731;49.708;10.816;2023-08-24T11:45:34;30.50;99.90
9383;DHT22;4731;49.708;10.816;2023-08-24T11:48:03;30.80;99.90
9383;DHT22;4731;49.708;10.816;2023-08-24T11:50:32;30.50;99.90
9383;DHT22;4731;49.708;10.816;2023-08-24T11:53:00;30.80;99.90
9383;DHT22;4731;49.708;10.816;2023-08-24T11:55:29;31.50;99.90
9383;DHT22;4731;49.708;10.816;2023-08-24T11:57:56;31.70;99.90
9383;DHT22;4731;49.708;10.816;2023-08-24T12:00:23;32.10;99.90
9383;DHT22;4731;49.708;10.816;2023-08-24T12:02:51;32.50;99.90
9383;DHT22;4731;49.708;10.816;2023-08-24T12:05:22;32.00;99.90
9383;DHT22;4731;49.708;10.816;2023-08-24T12:07:49;31.50;99.90
9383;DHT22;4731;49.708;10.816;2023-08-24T12:10:16;31.30;99.90
9383;DHT22;4731;49.708;10.816;2023-08-24T12:12:44;31.10;99.90
9383;DHT22;4731;49.708;10.816;2023-08-24T12:15:17;31.10;99.90
9383;DHT22;4731;49.708;10.816;2023-08-24T12:17:46;31.20;99.90
9383;DHT22;4731;49.708;10.816;2023-08-24T12:20:41;31.20;99.90
9383;DHT22;4731;49.708;10.816;2023-08-24T12:23:26;30.30;99.90
9383;DHT22;4731;49.708;10.816;2023-08-24T12:25:54;30.00;99.90
9383;DHT22;4731;49.708;10.816;2023-08-24T12:28:22;30.20;99.90
9383;DHT22;4731;49.708;10.816;2023-08-24T12:30:50;30.00;99.90
9383;DHT22;4731;49.708;10.816;2023-08-24T12:33:24;29.90;99.90
9383;DHT22;4731;49.708;10.816;2023-08-24T12:35:52;30.10;99.90
9383;DHT22;4731;49.708;10.816;2023-08-24T12:38:19;30.30;99.90
9383;DHT22;4731;49.708;10.816;2023-08-24T12:40:46;30.30;99.90
9383;DHT22;4731;49.708;10.816;2023-08-24T12:43:13;30.50;99.90
9383;DHT22;4731;49.708;10.816;2023-08-24T12:45:42;30.80;99.90
9383;DHT22;4731;49.708;10.816;2023-08-24T12:48:10;30.70;99.90
9383;DHT22;4731;49.708;10.816;2023-08-24T12:50:38;30.90;99.90
9383;DHT22;4731;49.708;10.816;2023-08-24T12:53:09;30.80;99.90
9383;DHT22;4731;49.708;10.816;2023-08-24T12:55:38;29.90;99.90
9383;DHT22;4731;49.708;10.816;2023-08-24T12:58:06;30.10;99.90
9383;DHT22;4731;49.708;10.816;2023-08-24T13:00:33;30.60;99.90
9383;DHT22;4731;49.708;10.816;2023-08-24T13:03:01;31.00;99.90
9383;DHT22;4731;49.708;10.816;2023-08-24T13:05:27;31.30;99.90
9383;DHT22;4731;49.708;10.816;2023-08-24T13:07:54;31.30;99.90
9383;DHT22;4731;49.708;10.816;2023-08-24T13:10:22;31.30;99.90
9383;DHT22;4731;49.708;10.816;2023-08-24T13:12:50;30.70;99.90
9383;DHT22;4731;49.708;10.816;2023-08-24T13:15:17;30.90;99.90
9383;DHT22;4731;49.708;10.816;2023-08-24T13:17:44;30.80;99.90
9383;DHT22;4731;49.708;10.816;2023-08-24T13:20:12;31.00;99.90
9383;DHT22;4731;49.708;10.816;2023-08-24T13:22:39;30.80;99.90
9383;DHT22;4731;49.708;10.816;2023-08-24T13:25:05;31.40;99.90
9383;DHT22;4731;49.708;10.816;2023-08-24T13:27:32;31.40;99.90
9383;DHT22;4731;49.708;10.816;2023-08-24T13:30:02;31.30;99.90
9383;DHT22;4731;49.708;10.816;2023-08-24T13:32:29;31.00;99.90
9383;DHT22;4731;49.708;10.816;2023-08-24T13:34:56;29.50;99.90
9383;DHT22;4731;49.708;10.816;2023-08-24T13:37:25;30.80;99.90
9383;DHT22;4731;49.708;10.816;2023-08-24T13:39:52;31.20;99.90
9383;DHT22;4731;49.708;10.816;2023-08-24T13:42:18;31.10;99.90
9383;DHT22;4731;49.708;10.816;2023-08-24T13:44:45;31.30;99.90
9383;DHT22;4731;49.708;10.816;2023-08-24T13:47:12;31.30;99.90
9383;DHT22;4731;49.708;10.816;2023-08-24T13:49:39;31.40;99.90
9383;DHT22;4731;49.708;10.816;2023-08-24T13:52:06;31.50;99.90
9383;DHT22;4731;49.708;10.816;2023-08-24T13:54:34;31.40;99.90
9383;DHT22;4731;49.708;10.816;2023-08-24T13:57:01;31.20;99.90
9383;DHT22;4731;49.708;10.816;2023-08-24T13:59:28;31.00;99.90
9383;DHT22;4731;49.708;10.816;2023-08-24T14:01:56;30.70;99.90
9383;DHT22;4731;49.708;10.816;2023-08-24T14:04:23;31.00;99.90
9383;DHT22;4731;49.708;10.816;2023-08-24T14:06:49;30.90;99.90
9383;DHT22;4731;49.708;10.816;2023-08-24T14:09:16;30.80;99.90
9383;DHT22;4731;49.708;10.816;2023-08-24T14:11:44;30.70;99.90
9383;DHT22;4731;49.708;10.816;2023-08-24T14:14:12;30.80;99.90
9383;DHT22;4731;49.708;10.816;2023-08-24T14:16:39;31.00;99.90
9383;DHT22;4731;49.708;10.816;2023-08-24T14:19:06;31.50;99.90
9383;DHT22;4731;49.708;10.816;2023-08-24T14:21:33;31.70;99.90
9383;DHT22;4731;49.708;10.816;2023-08-24T14:24:00;32.10;99.90
9383;DHT22;4731;49.708;10.816;2023-08-24T14:26:26;31.80;99.90
9383;DHT22;4731;49.708;10.816;2023-08-24T14:28:56;31.50;99.90
9383;DHT22;4731;49.708;10.816;2023-08-24T14:31:24;31.60;99.90
9383;DHT22;4731;49.708;10.816;2023-08-24T14:33:51;31.80;99.90
9383;DHT22;4731;49.708;10.816;2023-08-24T14:36:19;32.00;99.90
9383;DHT22;4731;49.708;10.816;2023-08-24T14:38:47;32.20;99.90
9383;DHT22;4731;49.708;10.816;2023-08-24T14:41:15;32.20;99.90
9383;DHT22;4731;49.708;10.816;2023-08-24T14:43:42;31.90;99.90
9383;DHT22;4731;49.708;10.816;2023-08-24T14:46:10;31.80;99.90
9383;DHT22;4731;49.708;10.816;2023-08-24T14:48:37;32.00;99.90
9383;DHT22;4731;49.708;10.816;2023-08-24T14:51:05;31.20;99.90
9383;DHT22;4731;49.708;10.816;2023-08-24T14:53:32;31.80;99.90
9383;DHT22;4731;49.708;10.816;2023-08-24T14:55:59;31.60;99.90
9383;DHT22;4731;49.708;10.816;2023-08-24T14:58:27;31.50;99.90
9383;DHT22;4731;49.708;10.816;2023-08-24T15:00:56;31.60;99.90
9383;DHT22;4731;49.708;10.816;2023-08-24T15:03:24;31.40;99.90
9383;DHT22;4731;49.708;10.816;2023-08-24T15:05:58;31.40;99.90
9383;DHT22;4731;49.708;10.816;2023-08-24T15:08:26;31.10;99.90
9383;DHT22;4731;49.708;10.816;2023-08-24T15:10:55;31.10;99.90
9383;DHT22;4731;49.708;10.816;2023-08-24T15:13:22;31.10;99.90
9383;DHT22;4731;49.708;10.816;2023-08-24T15:15:49;31.10;99.90
9383;DHT22;4731;49.708;10.816;2023-08-24T15:18:16;31.20;99.90
9383;DHT22;4731;49.708;10.816;2023-08-24T15:20:44;31.40;99.90
9383;DHT22;4731;49.708;10.816;2023-08-24T15:23:20;31.50;99.90
9383;DHT22;4731;49.708;10.816;2023-08-24T15:25:48;31.70;99.90
9383;DHT22;4731;49.708;10.816;2023-08-24T15:28:15;31.70;99.90
9383;DHT22;4731;49.708;10.816;2023-08-24T15:30:42;31.70;99.90
9383;DHT22;4731;49.708;10.816;2023-08-24T15:33:09;31.80;99.90
9383;DHT22;4731;49.708;10.816;2023-08-24T15:35:36;31.60;99.90
9383;DHT22;4731;49.708;10.816;2023-08-24T15:38:04;31.50;99.90
9383;DHT22;4731;49.708;10.816;2023-08-24T15:40:31;31.40;99.90
9383;DHT22;4731;49.708;10.816;2023-08-24T15:42:58;31.30;99.90
9383;DHT22;4731;49.708;10.816;2023-08-24T15:45:27;31.20;99.90
9383;DHT22;4731;49.708;10.816;2023-08-24T15:47:55;31.20;99.90
9383;DHT22;4731;49.708;10.816;2023-08-24T15:50:22;31.20;99.90